Aérodrome :
LOGIN :

S'inscrire | Disclaimer

   EN    FR    IT 

 










Légende :    VFR   VFR Marginal   IFR   IFR Intensif   IFR Très Intensif
Visi : 
Plafond : 
>= 8 km
>= 3000ft
5 à 8 km
1000 à 3000 ft
1500m à 5 km
500 à 1000 ft
800 à 1500m
200 à 500 ft
< 800m
< 200 ft
Symboles :   Orages  Brouillard  Fortes neiges  Fortes précipitations  Vent > 20 kt
SIGMETs :   Divers  Orages  Givrage  Turbulence  Onde Orograph.  Cendres Volcan.






- Altitude de l'aérodrome : 1460 ft


LSMA - Alpnach

DERNIER METAR :
  • 011050Z AUTO 04007KT 360V070 9999NDV NCD 06/M02 Q1018 RMK

METARs EXPIRÉS :
  • 011020Z AUTO 04006KT 360V070 9999NDV NCD 05/M02 Q1019 RMK
  • 010950Z 05005KT 350V070 CAVOK 04/M03 Q1019 RMK BLU
  • 010920Z 04003KT 350V070 CAVOK 04/M03 Q1019 RMK BLU
  • 010850Z VRB02KT CAVOK 03/M03 Q1020 RMK BLU
  • 010820Z VRB02KT CAVOK 02/M03 Q1020 RMK BLU
  • 010750Z 00000KT CAVOK 02/M03 Q1020 RMK BLU

Prévision TAF périmée.



MET'MAP, la Météo Aéronautique d'un coup d'oeil ! - Copyright ORBIFLY Décembre 2007 - Disclaimer

ORBIFLY MET'MAP TEAM :

Programmation & Développement : Alexandra Zaïnal
Sur une idée originale de : Baudouin d'Aumeries
Assistance à la programmation : Marc-Olivier Méhu
Soutien technique & logistique : Manuel Goepfert

Contact : metmap@orbifly.com




SOURCES & CREDITS :

   NOAA